Time;durP1;ratioP1;P1;durP2;ratioP2;P2;SDS_P1;SDS_P2;PMS_P1;PMS_P2;Temp;Humidity;BMP_temperature;BMP_pressure;BME280_temperature;BME280_humidity;BME280_pressure;Samples;Min_cycle;Max_cycle;Signal;HPM_P1;HPM_P2
2022/01/12 00:01:20;;;;;;;20.53;12.03;;;3.60;1.00;;;;;;5072505;28;20532;-73
2022/01/12 00:03:47;;;;;;;21.80;12.53;;;3.50;1.00;;;;;;5072557;28;20458;-71
2022/01/12 00:06:13;;;;;;;20.23;12.60;;;3.50;1.00;;;;;;5072714;28;20426;-73
2022/01/12 00:08:39;;;;;;;17.33;12.90;;;3.50;1.00;;;;;;5071609;28;20432;-70
2022/01/12 00:11:06;;;;;;;19.03;12.27;;;3.60;1.00;;;;;;5072615;28;20424;-73
2022/01/12 00:13:32;;;;;;;24.40;13.27;;;3.60;1.00;;;;;;5072590;28;20412;-73
2022/01/12 00:15:58;;;;;;;23.57;14.20;;;3.60;1.00;;;;;;5072015;28;20448;-70
2022/01/12 00:18:24;;;;;;;29.70;13.93;;;3.50;1.00;;;;;;5072275;28;20396;-73
2022/01/12 00:20:50;;;;;;;18.70;11.87;;;3.50;1.00;;;;;;5071656;28;20950;-71
2022/01/12 00:23:17;;;;;;;26.10;14.77;;;3.60;1.00;;;;;;5072594;28;20405;-73
2022/01/12 00:33:59;;;;;;;25.07;12.83;;;3.60;1.00;;;;;;5072687;28;20454;-73
2022/01/12 00:36:25;;;;;;;23.57;15.80;;;3.50;1.00;;;;;;5072025;28;20458;-71
2022/01/12 00:38:51;;;;;;;24.57;14.17;;;3.60;1.00;;;;;;5075142;28;20404;-72
2022/01/12 00:41:18;;;;;;;18.97;11.67;;;3.50;1.00;;;;;;5076115;28;20237;-71
2022/01/12 00:43:47;;;;;;;17.30;12.17;;;3.50;1.00;;;;;;5057861;28;20639;-71
2022/01/12 00:46:14;;;;;;;17.97;12.70;;;3.50;1.00;;;;;;5075850;28;20408;-73
2022/01/12 00:48:40;;;;;;;26.87;12.67;;;3.60;1.00;;;;;;5075139;28;20465;-71
2022/01/12 00:51:07;;;;;;;22.30;11.87;;;3.50;1.00;;;;;;5075707;28;20478;-72
2022/01/12 00:53:33;;;;;;;24.50;14.97;;;3.60;1.00;;;;;;5075674;28;20407;-73
2022/01/12 00:55:59;;;;;;;23.37;13.83;;;3.60;1.00;;;;;;5057324;28;20452;-71
2022/01/12 00:58:24;;;;;;;26.67;13.40;;;3.60;1.00;;;;;;5075426;28;20241;-71
2022/01/12 01:00:50;;;;;;;18.33;11.80;;;3.60;1.00;;;;;;5056822;28;20203;-71
2022/01/12 01:03:16;;;;;;;21.83;12.27;;;3.50;1.00;;;;;;5075649;28;20174;-70
2022/01/12 01:05:42;;;;;;;32.23;14.27;;;3.60;1.00;;;;;;5075592;28;20623;-71
2022/01/12 01:08:08;;;;;;;21.73;12.77;;;3.50;1.00;;;;;;5075324;28;20438;-73
2022/01/12 01:10:47;;;;;;;18.57;12.93;;;3.50;1.00;;;;;;5074647;28;20194;-73
2022/01/12 01:13:24;;;;;;;15.90;13.33;;;3.60;1.00;;;;;;5057523;28;20412;-72
2022/01/12 01:15:59;;;;;;;28.40;15.07;;;3.50;1.00;;;;;;5074590;28;20455;-73
2022/01/12 01:26:41;;;;;;;19.60;12.77;;;3.60;1.00;;;;;;5075471;28;20512;-71
2022/01/12 01:29:07;;;;;;;26.63;13.27;;;3.60;1.00;;;;;;5074277;28;20487;-72
2022/01/12 01:31:34;;;;;;;24.63;16.10;;;3.50;1.00;;;;;;5056405;28;20437;-73
2022/01/12 01:34:08;;;;;;;26.90;13.27;;;3.50;1.00;;;;;;5074902;28;20171;-73
2022/01/12 01:36:50;;;;;;;23.17;13.07;;;3.60;1.00;;;;;;5074952;28;20509;-72
2022/01/12 01:39:18;;;;;;;26.90;16.03;;;3.60;1.00;;;;;;5056108;28;20409;-71
2022/01/12 01:41:50;;;;;;;21.57;14.60;;;3.60;1.00;;;;;;5074728;28;20436;-70
2022/01/12 01:54:56;;;;;;;32.57;15.30;;;3.50;1.00;;;;;;5074589;28;20436;-71
2022/01/12 01:57:24;;;;;;;28.03;14.00;;;3.50;1.00;;;;;;5074549;28;20440;-72
2022/01/12 01:59:50;;;;;;;24.90;15.17;;;3.50;1.00;;;;;;5073627;28;20166;-71
2022/01/12 02:02:16;;;;;;;33.27;14.33;;;3.50;1.00;;;;;;5074342;28;20812;-70
2022/01/12 02:04:42;;;;;;;21.37;12.53;;;3.40;1.00;;;;;;5074381;28;20216;-73
2022/01/12 02:07:08;;;;;;;18.23;12.63;;;3.50;1.00;;;;;;5074453;28;20405;-72
2022/01/12 02:09:34;;;;;;;19.13;12.90;;;3.50;1.00;;;;;;5072761;28;20228;-74
2022/01/12 02:12:01;;;;;;;23.30;14.17;;;3.60;1.00;;;;;;5074063;28;20170;-70
2022/01/12 02:14:28;;;;;;;37.83;14.73;;;3.60;1.00;;;;;;5074107;28;20491;-71
2022/01/12 02:17:03;;;;;;;25.03;12.10;;;3.60;1.00;;;;;;5074106;28;20915;-70
2022/01/12 02:19:51;;;;;;;28.77;12.97;;;3.60;1.00;;;;;;5073145;28;20385;-72
2022/01/12 02:36:23;;;;;;;26.03;13.10;;;3.50;1.00;;;;;;5073980;28;21035;-74
2022/01/12 02:41:33;;;;;;;21.20;12.90;;;3.50;1.00;;;;;;5073567;28;20419;-72
2022/01/12 02:54:46;;;;;;;30.20;14.63;;;3.60;1.00;;;;;;5073393;28;20503;-73
2022/01/12 02:57:12;;;;;;;29.03;15.37;;;3.60;1.00;;;;;;5073564;28;20412;-72
2022/01/12 02:59:49;;;;;;;23.40;12.90;;;3.50;1.00;;;;;;5072204;28;20400;-71
2022/01/12 03:07:58;;;;;;;27.93;15.60;;;3.60;1.00;;;;;;5073213;28;20991;-71
2022/01/12 03:10:25;;;;;;;20.67;12.20;;;3.60;1.00;;;;;;5072237;28;20971;-70
2022/01/12 03:12:51;;;;;;;19.77;11.43;;;3.50;1.00;;;;;;5073121;28;20512;-71
2022/01/12 03:15:17;;;;;;;25.43;14.00;;;3.60;1.00;;;;;;5073141;28;20456;-72
2022/01/12 03:17:43;;;;;;;28.30;13.80;;;3.50;1.00;;;;;;5073190;28;20169;-71
2022/01/12 03:20:09;;;;;;;27.90;14.30;;;3.50;1.00;;;;;;5072126;28;20909;-72
2022/01/12 03:22:35;;;;;;;25.10;12.77;;;3.60;1.00;;;;;;5072497;28;20495;-72
2022/01/12 03:25:01;;;;;;;31.67;13.90;;;3.60;1.00;;;;;;5055020;28;20443;-72
2022/01/12 03:27:28;;;;;;;27.43;13.63;;;3.60;1.00;;;;;;5055030;28;20170;-71
2022/01/12 03:29:56;;;;;;;30.70;15.77;;;3.50;1.00;;;;;;5072069;28;20249;-70
2022/01/12 03:32:32;;;;;;;24.50;12.37;;;3.60;1.00;;;;;;5072979;28;20405;-72
2022/01/12 03:35:07;;;;;;;27.07;12.93;;;3.70;1.00;;;;;;5072773;28;20427;-72
2022/01/12 03:37:42;;;;;;;24.23;13.10;;;3.60;1.00;;;;;;5072960;28;20959;-70
2022/01/12 03:40:09;;;;;;;26.27;14.97;;;3.60;1.00;;;;;;5071781;28;20424;-70
2022/01/12 03:42:35;;;;;;;25.50;12.03;;;3.70;1.00;;;;;;5072331;28;20408;-70
2022/01/12 03:45:02;;;;;;;26.53;12.83;;;3.80;1.00;;;;;;5072806;28;20890;-70
2022/01/12 03:47:27;;;;;;;17.67;10.93;;;3.80;1.00;;;;;;5054790;28;20256;-70
2022/01/12 03:49:53;;;;;;;27.70;12.60;;;3.80;1.00;;;;;;5071996;28;20455;-71
2022/01/12 03:52:19;;;;;;;19.03;11.23;;;3.80;1.00;;;;;;5072778;28;20295;-72
2022/01/12 03:54:44;;;;;;;23.70;11.37;;;3.80;1.60;;;;;;5072458;28;20181;-71
2022/01/12 03:57:10;;;;;;;25.67;13.13;;;3.90;3.90;;;;;;5072590;28;20190;-74
2022/01/12 03:59:35;;;;;;;20.00;10.97;;;3.90;3.90;;;;;;5071728;28;20705;-72
2022/01/12 04:02:01;;;;;;;24.67;13.37;;;4.00;4.00;;;;;;5072422;28;20164;-73
2022/01/12 04:04:35;;;;;;;25.20;13.47;;;4.00;4.00;;;;;;5072536;28;20631;-70
2022/01/12 04:09:46;;;;;;;20.27;11.63;;;3.90;3.80;;;;;;5071789;28;20416;-71
2022/01/12 04:12:12;;;;;;;29.83;12.50;;;4.00;4.50;;;;;;5074152;28;20395;-70
2022/01/12 04:14:38;;;;;;;27.30;12.20;;;3.90;3.90;;;;;;5076739;28;20469;-70
2022/01/12 04:17:04;;;;;;;20.70;12.00;;;4.00;4.00;;;;;;5076535;28;20535;-70
2022/01/12 04:19:29;;;;;;;21.67;12.80;;;4.00;4.00;;;;;;5075423;28;20749;-73
2022/01/12 04:22:05;;;;;;;24.50;13.07;;;4.10;6.50;;;;;;5076005;28;20196;-70
2022/01/12 04:24:31;;;;;;;23.80;11.37;;;4.20;9.20;;;;;;5076138;28;20495;-73
2022/01/12 04:26:56;;;;;;;29.17;13.07;;;4.20;7.00;;;;;;5076207;28;20413;-71
2022/01/12 04:29:22;;;;;;;20.20;11.20;;;4.20;6.20;;;;;;5057378;28;20236;-71
2022/01/12 04:31:48;;;;;;;27.07;12.33;;;4.20;6.90;;;;;;5076163;28;20225;-70
2022/01/12 04:34:13;;;;;;;16.43;10.50;;;4.20;5.60;;;;;;5076166;28;20167;-70
2022/01/12 04:36:39;;;;;;;17.33;11.80;;;4.20;4.90;;;;;;5076054;28;20183;-71
2022/01/12 04:39:05;;;;;;;27.43;11.53;;;4.30;7.60;;;;;;5075126;28;20172;-72
2022/01/12 04:41:30;;;;;;;28.13;13.50;;;4.30;8.00;;;;;;5075395;28;20189;-73
2022/01/12 04:43:57;;;;;;;23.73;10.93;;;4.40;8.80;;;;;;5075677;28;20199;-72
2022/01/12 04:46:34;;;;;;;23.70;11.20;;;4.40;9.00;;;;;;5075926;28;20233;-70
2022/01/12 04:51:44;;;;;;;25.00;12.30;;;4.50;9.20;;;;;;5075643;28;20579;-72
2022/01/12 04:54:09;;;;;;;20.20;10.17;;;4.60;9.60;;;;;;5075805;28;20415;-72
2022/01/12 04:56:35;;;;;;;25.97;11.60;;;4.60;6.60;;;;;;5075794;28;20207;-72
2022/01/12 04:59:02;;;;;;;21.10;10.27;;;4.50;4.40;;;;;;5074187;28;20194;-72
2022/01/12 05:01:33;;;;;;;25.37;12.10;;;4.50;4.40;;;;;;5057537;28;20618;-71
2022/01/12 05:07:09;;;;;;;17.60;10.00;;;4.60;4.40;;;;;;5075581;28;20404;-72
2022/01/12 05:15:02;;;;;;;22.07;11.30;;;4.60;1.00;;;;;;5075233;28;20181;-70
2022/01/12 05:17:29;;;;;;;19.33;9.93;;;4.60;1.00;;;;;;5075377;28;20410;-71
2022/01/12 05:19:55;;;;;;;21.20;8.93;;;4.60;1.00;;;;;;5074382;28;20811;-71
2022/01/12 05:22:20;;;;;;;23.13;10.10;;;4.60;1.00;;;;;;5075189;28;20396;-72
2022/01/12 05:24:46;;;;;;;18.97;9.67;;;4.60;1.00;;;;;;5075198;28;20170;-73
2022/01/12 05:27:11;;;;;;;22.20;10.70;;;4.60;1.00;;;;;;5075242;28;20184;-72
2022/01/12 05:29:37;;;;;;;23.30;9.50;;;4.50;1.00;;;;;;5074140;28;20259;-72
2022/01/12 05:32:03;;;;;;;29.17;10.87;;;4.50;1.00;;;;;;5074624;28;20176;-72
2022/01/12 05:34:29;;;;;;;25.80;12.10;;;4.60;1.00;;;;;;5074766;28;20174;-70
2022/01/12 05:36:54;;;;;;;20.87;9.87;;;4.60;1.00;;;;;;5074819;28;20782;-72
2022/01/12 05:39:20;;;;;;;20.47;9.73;;;4.50;1.00;;;;;;5074230;28;20174;-70
2022/01/12 05:41:45;;;;;;;19.90;11.53;;;4.50;1.00;;;;;;5074726;28;20280;-74
2022/01/12 05:44:11;;;;;;;24.73;10.13;;;4.60;1.00;;;;;;5074815;28;20198;-73
2022/01/12 05:46:40;;;;;;;23.57;9.90;;;4.60;1.00;;;;;;5074961;28;20184;-71
2022/01/12 05:51:51;;;;;;;20.00;10.60;;;4.70;1.00;;;;;;5074430;28;20431;-72
2022/01/12 05:54:17;;;;;;;18.33;9.50;;;4.70;1.00;;;;;;5074600;28;20409;-73
2022/01/12 05:56:44;;;;;;;22.00;12.67;;;4.70;1.00;;;;;;5056671;28;20455;-73
2022/01/12 05:59:09;;;;;;;31.27;10.70;;;4.60;1.00;;;;;;5073773;28;20399;-72
2022/01/12 06:01:35;;;;;;;20.03;9.80;;;4.70;1.00;;;;;;5074380;28;20785;-70
2022/01/12 06:04:00;;;;;;;18.90;11.60;;;4.60;1.00;;;;;;5074386;28;20166;-74
2022/01/12 06:06:26;;;;;;;21.40;10.10;;;4.70;1.00;;;;;;5074545;28;20177;-70
2022/01/12 06:08:52;;;;;;;20.83;8.87;;;4.60;1.00;;;;;;5073393;28;20226;-72
2022/01/12 06:11:17;;;;;;;24.37;10.77;;;4.50;1.00;;;;;;5073642;28;20222;-70
2022/01/12 06:13:43;;;;;;;19.80;9.60;;;4.50;1.00;;;;;;5074248;28;20178;-72
2022/01/12 06:16:08;;;;;;;20.73;10.60;;;4.60;1.00;;;;;;5074136;28;20242;-73
2022/01/12 06:18:34;;;;;;;17.50;9.10;;;4.50;1.00;;;;;;5055494;28;20651;-71
2022/01/12 06:21:00;;;;;;;20.47;10.10;;;4.40;1.00;;;;;;5074272;28;20754;-70
2022/01/12 06:23:25;;;;;;;19.03;9.93;;;4.40;1.00;;;;;;5074097;28;20222;-73
2022/01/12 06:25:51;;;;;;;22.00;10.77;;;4.40;1.00;;;;;;5074004;28;20178;-72
2022/01/12 06:28:38;;;;;;;19.53;10.10;;;4.50;1.00;;;;;;5073527;28;20174;-71
2022/01/12 06:31:10;;;;;;;14.20;7.50;;;4.50;1.00;;;;;;5073465;28;20192;-70
2022/01/12 06:33:37;;;;;;;20.70;8.77;;;4.50;1.00;;;;;;5073872;28;20416;-72
2022/01/12 06:36:04;;;;;;;22.87;9.37;;;4.50;1.00;;;;;;5073196;28;20456;-72
2022/01/12 06:38:29;;;;;;;22.37;11.53;;;4.60;1.00;;;;;;5073084;28;20396;-77
2022/01/12 06:40:55;;;;;;;24.70;10.93;;;4.60;1.00;;;;;;5073441;28;20428;-70
2022/01/12 06:43:21;;;;;;;20.63;11.97;;;4.60;1.00;;;;;;5073833;28;20260;-73
2022/01/12 06:45:47;;;;;;;20.20;10.80;;;4.60;1.00;;;;;;5073264;28;20185;-72
2022/01/12 06:48:12;;;;;;;21.97;9.13;;;4.60;1.00;;;;;;5055506;28;20181;-73
2022/01/12 06:50:38;;;;;;;16.77;9.07;;;4.50;1.00;;;;;;5072645;28;20520;-74
2022/01/12 06:53:03;;;;;;;27.77;11.70;;;4.40;1.00;;;;;;5054692;28;20426;-72
2022/01/12 06:55:29;;;;;;;25.47;11.80;;;4.40;1.00;;;;;;5073355;28;20201;-70
2022/01/12 06:57:55;;;;;;;28.10;11.70;;;4.40;1.00;;;;;;5073605;28;20170;-70
2022/01/12 07:00:20;;;;;;;21.73;9.23;;;4.40;1.00;;;;;;5072377;28;20251;-71
2022/01/12 07:02:46;;;;;;;16.97;10.57;;;4.50;1.00;;;;;;5072939;28;20174;-72
2022/01/12 07:05:12;;;;;;;14.67;8.57;;;4.50;1.00;;;;;;5073297;28;20555;-71
2022/01/12 07:07:37;;;;;;;23.43;11.37;;;4.50;1.00;;;;;;5073162;28;20601;-70
2022/01/12 07:10:03;;;;;;;30.77;11.10;;;4.50;1.00;;;;;;5072326;28;20194;-70
2022/01/12 07:12:29;;;;;;;22.70;9.40;;;4.60;1.00;;;;;;5073083;28;20660;-71
2022/01/12 07:14:54;;;;;;;25.90;10.77;;;4.60;1.00;;;;;;5072938;28;20405;-71
2022/01/12 07:17:21;;;;;;;24.93;10.80;;;4.70;1.00;;;;;;5073657;28;20162;-72
2022/01/12 07:19:46;;;;;;;21.87;10.57;;;4.70;1.00;;;;;;5092664;28;20166;-71
2022/01/12 07:22:12;;;;;;;20.77;8.77;;;4.70;1.00;;;;;;5093129;28;20407;-70
2022/01/12 07:24:37;;;;;;;27.27;10.17;;;4.70;1.00;;;;;;5092867;28;20188;-73
2022/01/12 07:27:03;;;;;;;13.40;7.60;;;4.50;1.00;;;;;;5093194;28;20222;-71
2022/01/12 07:29:29;;;;;;;28.07;11.77;;;4.50;1.00;;;;;;5092267;28;20165;-71
2022/01/12 07:31:54;;;;;;;26.77;11.63;;;4.50;1.00;;;;;;5093340;28;20422;-72
2022/01/12 07:34:20;;;;;;;18.40;10.07;;;4.50;1.00;;;;;;5093284;28;20180;-72
2022/01/12 07:36:46;;;;;;;22.23;10.10;;;4.50;1.00;;;;;;5093165;28;20545;-73
2022/01/12 07:39:11;;;;;;;29.47;11.57;;;4.50;1.00;;;;;;5092315;28;20232;-72
2022/01/12 07:41:37;;;;;;;17.93;8.50;;;4.50;1.00;;;;;;5074484;28;20672;-72
2022/01/12 07:44:03;;;;;;;21.37;12.00;;;4.50;1.00;;;;;;5093091;28;20195;-71
2022/01/12 07:46:29;;;;;;;20.83;9.90;;;4.50;1.00;;;;;;5075472;28;20190;-72
2022/01/12 07:48:54;;;;;;;21.60;9.27;;;4.40;1.00;;;;;;5096427;28;20407;-71
2022/01/12 07:51:20;;;;;;;17.47;9.50;;;4.30;1.00;;;;;;5097197;28;20195;-70
2022/01/12 07:53:46;;;;;;;18.60;9.53;;;4.40;1.00;;;;;;5097275;28;20173;-72
2022/01/12 07:56:12;;;;;;;20.03;8.70;;;4.30;1.00;;;;;;5097162;28;20197;-70
2022/01/12 07:58:38;;;;;;;18.03;10.60;;;4.30;1.00;;;;;;5095821;28;20479;-71
2022/01/12 08:01:03;;;;;;;20.67;9.93;;;4.20;1.00;;;;;;5096821;28;20502;-73
2022/01/12 08:03:29;;;;;;;20.50;9.90;;;4.20;1.00;;;;;;5097072;28;20173;-73
2022/01/12 08:05:56;;;;;;;30.80;11.57;;;4.30;1.00;;;;;;5097092;28;20201;-71
2022/01/12 08:08:22;;;;;;;19.20;9.30;;;4.30;1.00;;;;;;5096714;28;20181;-71
2022/01/12 08:10:48;;;;;;;21.30;8.93;;;4.30;1.00;;;;;;5096042;28;21007;-72
2022/01/12 08:13:14;;;;;;;22.10;10.50;;;4.30;1.00;;;;;;5096779;28;20399;-72
2022/01/12 08:15:40;;;;;;;13.33;8.37;;;4.20;1.00;;;;;;5096662;28;21008;-71
2022/01/12 08:18:06;;;;;;;21.87;9.87;;;4.20;1.00;;;;;;5096171;28;20400;-74
2022/01/12 08:20:32;;;;;;;30.00;8.83;;;4.30;1.00;;;;;;5095845;28;20187;-73
2022/01/12 08:22:58;;;;;;;18.67;8.93;;;4.30;1.00;;;;;;5096651;28;20395;-72
2022/01/12 08:25:24;;;;;;;21.63;10.47;;;4.30;1.00;;;;;;5096548;28;20187;-74
2022/01/12 08:27:51;;;;;;;29.10;10.00;;;4.40;1.00;;;;;;5096505;28;20291;-73
2022/01/12 08:30:18;;;;;;;25.73;11.17;;;4.40;1.00;;;;;;5095583;28;20417;-71
2022/01/12 08:32:46;;;;;;;20.53;10.30;;;4.50;1.00;;;;;;5096555;28;20410;-74
2022/01/12 08:35:13;;;;;;;16.27;8.90;;;4.50;1.00;;;;;;5095802;28;20406;-72
2022/01/12 08:37:38;;;;;;;17.23;9.37;;;4.50;1.00;;;;;;5096302;28;20408;-72
2022/01/12 08:40:05;;;;;;;18.90;8.63;;;4.50;1.00;;;;;;5095402;28;20807;-73
2022/01/12 08:42:30;;;;;;;26.30;9.30;;;4.50;1.00;;;;;;5096408;28;20652;-70
2022/01/12 08:44:59;;;;;;;20.33;10.33;;;4.40;1.00;;;;;;5096245;28;20390;-73
2022/01/12 08:47:25;;;;;;;15.90;9.20;;;4.50;1.00;;;;;;5096048;28;20242;-72
2022/01/12 08:49:51;;;;;;;20.90;9.33;;;4.50;1.00;;;;;;5095277;28;20494;-71
2022/01/12 08:52:17;;;;;;;13.43;7.90;;;4.50;1.00;;;;;;5095674;28;20420;-74
2022/01/12 08:54:42;;;;;;;16.77;7.90;;;4.50;1.00;;;;;;5095887;28;20178;-70
2022/01/12 08:57:08;;;;;;;18.70;7.80;;;4.40;1.00;;;;;;5095635;28;20207;-72
2022/01/12 08:59:34;;;;;;;14.27;7.97;;;4.20;1.00;;;;;;5094883;28;20548;-70
2022/01/12 09:02:00;;;;;;;16.07;7.50;;;4.20;1.00;;;;;;5095931;28;20409;-68
2022/01/12 09:04:27;;;;;;;10.40;6.93;;;4.10;1.00;;;;;;5095909;28;20161;-70
2022/01/12 09:06:53;;;;;;;17.50;7.73;;;4.20;1.00;;;;;;5095905;28;20530;-70
2022/01/12 09:09:19;;;;;;;13.00;7.27;;;4.30;1.00;;;;;;5076325;28;20512;-72
2022/01/12 09:11:45;;;;;;;14.23;8.13;;;4.20;1.00;;;;;;5095413;28;20897;-73
2022/01/12 09:14:11;;;;;;;17.20;9.13;;;4.20;1.00;;;;;;5095479;28;20469;-70
2022/01/12 09:16:37;;;;;;;17.90;8.97;;;4.20;1.00;;;;;;5095699;28;20456;-72
2022/01/12 09:19:03;;;;;;;16.03;8.23;;;4.20;1.00;;;;;;5094716;28;20464;-70
2022/01/12 09:21:29;;;;;;;12.23;7.73;;;4.10;1.00;;;;;;5095480;28;20492;-70
2022/01/12 09:23:55;;;;;;;11.07;8.37;;;4.00;1.00;;;;;;5095404;28;20394;-71
2022/01/12 09:26:20;;;;;;;14.83;7.93;;;4.00;1.00;;;;;;5094750;28;20157;-70
2022/01/12 09:28:48;;;;;;;14.17;7.67;;;3.90;1.00;;;;;;5084575;28;20187;-73
2022/01/12 09:31:14;;;;;;;10.47;6.53;;;4.00;1.00;;;;;;5095143;28;20675;-71
2022/01/12 09:33:40;;;;;;;14.13;8.03;;;4.10;1.00;;;;;;5091944;28;20474;-70
2022/01/12 09:36:06;;;;;;;14.90;7.17;;;4.10;1.00;;;;;;5079120;28;20215;-72
2022/01/12 09:38:33;;;;;;;8.83;6.00;;;4.10;1.00;;;;;;5073744;28;20488;-74
2022/01/12 09:40:58;;;;;;;6.73;4.60;;;4.20;1.00;;;;;;5074900;28;20832;-73
2022/01/12 09:43:26;;;;;;;6.87;4.80;;;4.30;1.00;;;;;;5074232;28;20447;-70
2022/01/12 09:45:53;;;;;;;7.17;4.67;;;4.20;1.00;;;;;;5074863;28;20179;-71
2022/01/12 09:48:23;;;;;;;7.10;4.80;;;4.20;1.00;;;;;;5074834;28;20461;-70
2022/01/12 09:50:52;;;;;;;8.13;6.17;;;4.30;1.00;;;;;;5073912;28;20425;-70
2022/01/12 09:53:18;;;;;;;6.70;4.53;;;4.20;1.00;;;;;;5074606;28;20480;-73
2022/01/12 09:55:44;;;;;;;6.63;5.20;;;4.30;1.00;;;;;;5074757;28;20456;-70
2022/01/12 09:58:09;;;;;;;6.47;4.97;;;4.20;1.00;;;;;;5074595;28;20784;-73
2022/01/12 10:00:35;;;;;;;8.20;3.73;;;4.30;1.00;;;;;;5072903;28;20417;-72
2022/01/12 10:03:11;;;;;;;4.70;4.30;;;4.30;1.00;;;;;;5074474;28;20162;-71
2022/01/12 10:05:38;;;;;;;5.90;4.20;;;4.20;1.00;;;;;;5056398;28;20804;-70
2022/01/12 10:08:08;;;;;;;4.03;3.07;;;4.10;1.00;;;;;;5074086;28;20478;-72
2022/01/12 10:10:34;;;;;;;5.23;3.80;;;4.10;1.00;;;;;;5072336;28;20543;-72
2022/01/12 10:12:59;;;;;;;4.63;2.73;;;4.20;1.00;;;;;;5074337;28;20405;-70
2022/01/12 10:15:29;;;;;;;3.20;2.90;;;4.20;1.00;;;;;;5073944;28;20190;-73
2022/01/12 10:18:01;;;;;;;3.67;3.17;;;4.20;1.00;;;;;;5073874;28;20243;-72
2022/01/12 10:20:27;;;;;;;5.93;2.90;;;4.30;1.00;;;;;;5073046;28;20420;-70
2022/01/12 10:23:07;;;;;;;4.53;3.10;;;4.40;1.00;;;;;;5056197;28;20419;-70
2022/01/12 10:25:34;;;;;;;3.20;2.80;;;4.40;1.00;;;;;;5092521;28;20177;-71
2022/01/12 10:28:13;;;;;;;3.73;3.40;;;4.50;1.00;;;;;;5075994;28;20407;-71
2022/01/12 10:30:39;;;;;;;3.13;2.83;;;4.70;1.00;;;;;;5073007;28;20449;-73
2022/01/12 10:33:06;;;;;;;4.67;2.53;;;4.70;1.00;;;;;;5074150;28;20401;-71
2022/01/12 10:35:39;;;;;;;4.63;3.47;;;4.70;1.00;;;;;;5091860;28;20959;-69
2022/01/12 10:38:11;;;;;;;4.47;3.20;;;4.80;1.00;;;;;;5087199;28;20415;-71
2022/01/12 10:40:53;;;;;;;4.17;3.03;;;4.80;1.00;;;;;;5072717;28;20918;-70
2022/01/12 10:43:34;;;;;;;2.80;2.57;;;4.80;1.00;;;;;;5080942;28;20403;-73
2022/01/12 10:46:03;;;;;;;5.03;3.40;;;4.90;1.00;;;;;;5093944;28;20393;-72
2022/01/12 10:48:43;;;;;;;4.23;3.93;;;4.90;1.00;;;;;;5088485;28;20438;-77
2022/01/12 10:51:10;;;;;;;4.60;3.50;;;4.90;1.00;;;;;;5087855;28;20773;-72
2022/01/12 10:53:36;;;;;;;4.23;3.83;;;4.90;1.00;;;;;;5093162;28;20738;-71
2022/01/12 10:56:08;;;;;;;5.93;3.70;;;5.00;1.00;;;;;;5092984;28;20496;-70
2022/01/12 10:58:37;;;;;;;5.10;3.63;;;5.00;1.00;;;;;;5092778;28;20414;-71
2022/01/12 11:01:03;;;;;;;11.23;4.33;;;5.10;1.00;;;;;;5077390;28;20443;-70
2022/01/12 11:03:30;;;;;;;5.50;3.40;;;5.20;1.00;;;;;;5073375;28;20749;-71
2022/01/12 11:05:56;;;;;;;9.60;3.87;;;5.30;1.00;;;;;;5087430;28;20205;-73
2022/01/12 11:08:24;;;;;;;3.87;3.50;;;5.30;1.00;;;;;;5093416;28;20415;-71
2022/01/12 11:10:51;;;;;;;7.93;4.33;;;5.30;1.00;;;;;;5078743;28;20951;-69
2022/01/12 11:13:16;;;;;;;6.03;3.77;;;5.20;1.00;;;;;;5073083;28;20798;-70
2022/01/12 11:15:42;;;;;;;7.00;4.50;;;5.30;1.00;;;;;;5084526;28;20494;-71
2022/01/12 11:18:09;;;;;;;3.73;3.43;;;5.40;1.00;;;;;;5093414;28;20205;-70
2022/01/12 11:20:37;;;;;;;8.90;4.33;;;5.40;1.00;;;;;;5090489;28;20185;-73
2022/01/12 11:23:13;;;;;;;5.40;3.60;;;5.30;1.00;;;;;;5093329;28;20459;-71
2022/01/12 11:25:52;;;;;;;6.70;5.27;;;5.30;1.00;;;;;;5089446;28;20446;-70
2022/01/12 11:28:27;;;;;;;7.37;6.00;;;5.40;1.00;;;;;;5092627;28;20807;-72
2022/01/12 11:30:55;;;;;;;8.37;4.97;;;5.50;1.00;;;;;;5091672;28;20449;-72
2022/01/12 11:33:29;;;;;;;7.33;5.13;;;5.40;1.00;;;;;;5093130;28;20415;-71
2022/01/12 11:35:56;;;;;;;14.30;5.17;;;5.40;1.00;;;;;;5091756;28;20464;-73
2022/01/12 11:38:27;;;;;;;8.47;4.67;;;5.40;1.00;;;;;;5093137;28;20407;-72
2022/01/12 11:40:55;;;;;;;8.00;5.77;;;5.50;1.00;;;;;;5091488;28;20442;-71
2022/01/12 11:43:21;;;;;;;5.73;4.67;;;5.40;1.00;;;;;;5093075;28;20449;-72
2022/01/12 11:46:12;;;;;;;6.00;4.97;;;5.50;1.00;;;;;;5091771;28;20923;-71
2022/01/12 11:48:49;;;;;;;10.20;5.07;;;5.60;1.00;;;;;;5092104;28;20208;-71
2022/01/12 11:51:31;;;;;;;7.83;4.53;;;5.70;1.00;;;;;;5072948;28;20444;-72
2022/01/12 11:54:05;;;;;;;5.57;4.60;;;5.80;1.00;;;;;;5072653;28;20409;-73
2022/01/12 11:56:30;;;;;;;9.87;4.77;;;5.90;1.00;;;;;;5072823;28;20451;-72
2022/01/12 11:59:06;;;;;;;10.13;5.00;;;6.00;1.00;;;;;;5071853;28;20408;-71
2022/01/12 12:01:48;;;;;;;4.40;4.00;;;6.20;1.00;;;;;;5072616;28;20275;-70
2022/01/12 12:04:23;;;;;;;9.33;5.40;;;6.10;1.00;;;;;;5073572;28;20400;-71
2022/01/12 12:06:50;;;;;;;7.93;4.67;;;6.00;1.00;;;;;;5092292;28;20394;-70
2022/01/12 12:09:18;;;;;;;18.60;6.00;;;6.10;1.00;;;;;;5090804;28;20504;-72
2022/01/12 12:11:51;;;;;;;10.70;4.47;;;6.20;1.00;;;;;;5072738;28;20880;-72
2022/01/12 12:14:18;;;;;;;7.57;4.00;;;6.20;1.00;;;;;;5072780;28;20409;-73
2022/01/12 12:16:45;;;;;;;7.53;4.07;;;6.30;1.00;;;;;;5074495;28;20815;-70
2022/01/12 12:19:11;;;;;;;9.37;4.30;;;6.30;1.00;;;;;;5091674;28;20400;-72
2022/01/12 12:21:37;;;;;;;11.83;4.97;;;6.30;1.00;;;;;;5083661;28;20536;-70
2022/01/12 12:24:16;;;;;;;5.60;4.93;;;6.30;1.00;;;;;;5091985;28;20176;-72
2022/01/12 12:26:52;;;;;;;12.67;4.33;;;6.30;1.00;;;;;;5092029;28;20431;-73
2022/01/12 12:29:28;;;;;;;9.57;4.80;;;6.40;1.00;;;;;;5091670;28;20407;-71
2022/01/12 12:31:56;;;;;;;12.30;4.17;;;6.40;1.00;;;;;;5072357;28;20432;-70
2022/01/12 12:34:27;;;;;;;12.80;4.40;;;6.40;1.00;;;;;;5077057;28;20420;-72
2022/01/12 12:37:14;;;;;;;6.97;5.10;;;6.50;1.00;;;;;;5080823;28;20447;-70
2022/01/12 12:39:42;;;;;;;10.27;5.23;;;6.60;1.00;;;;;;5090224;28;20520;-75
2022/01/12 12:42:19;;;;;;;13.93;5.80;;;6.70;1.00;;;;;;5075584;28;20396;-73
2022/01/12 12:44:47;;;;;;;6.03;5.23;;;6.80;1.00;;;;;;5080363;28;20414;-73
2022/01/12 12:47:18;;;;;;;16.40;4.90;;;6.80;1.00;;;;;;5096380;28;20411;-76
2022/01/12 12:49:52;;;;;;;9.97;6.03;;;6.90;1.00;;;;;;5090753;28;20920;-74
2022/01/12 12:52:24;;;;;;;10.10;4.70;;;7.00;1.00;;;;;;5075890;28;20511;-73
2022/01/12 12:54:51;;;;;;;7.50;5.30;;;7.00;1.00;;;;;;5083438;28;20499;-73
2022/01/12 12:57:21;;;;;;;14.10;5.13;;;7.10;1.00;;;;;;5095825;28;20483;-74
2022/01/12 12:59:48;;;;;;;5.50;5.10;;;7.20;1.00;;;;;;5094013;28;20418;-76
2022/01/12 13:02:14;;;;;;;7.93;5.43;;;7.10;1.00;;;;;;5095669;28;20406;-72
2022/01/12 13:04:40;;;;;;;7.60;5.10;;;7.10;1.00;;;;;;5090202;28;20499;-72
2022/01/12 13:07:15;;;;;;;5.77;4.80;;;7.20;1.00;;;;;;5075815;28;20193;-74
2022/01/12 13:09:40;;;;;;;16.23;4.43;;;7.30;1.00;;;;;;5079401;28;20784;-75
2022/01/12 13:12:07;;;;;;;10.97;4.90;;;7.30;1.00;;;;;;5095417;28;20403;-73
2022/01/12 13:14:42;;;;;;;9.03;4.23;;;7.40;1.00;;;;;;5092176;28;20648;-76
2022/01/12 13:17:08;;;;;;;11.03;4.17;;;7.30;1.00;;;;;;5057162;28;20539;-76
2022/01/12 13:22:33;;;;;;;9.50;3.70;;;7.50;1.00;;;;;;5095835;28;20399;-74
2022/01/12 13:25:00;;;;;;;11.90;3.57;;;7.50;1.00;;;;;;5089299;28;20476;-74
2022/01/12 13:27:27;;;;;;;9.80;4.63;;;7.60;1.00;;;;;;5075204;28;20900;-74
2022/01/12 13:29:54;;;;;;;6.83;3.60;;;7.70;1.00;;;;;;5078311;28;20424;-75
2022/01/12 13:32:20;;;;;;;6.73;3.67;;;7.60;1.00;;;;;;5095326;28;20400;-73
2022/01/12 13:35:04;;;;;;;13.47;4.80;;;7.60;1.00;;;;;;5092088;28;20424;-74
2022/01/12 13:37:31;;;;;;;7.37;3.70;;;7.60;1.00;;;;;;5057015;28;20456;-74
2022/01/12 13:40:14;;;;;;;8.20;3.50;;;7.60;1.00;;;;;;5077263;28;20522;-74
2022/01/12 13:42:54;;;;;;;8.70;3.70;;;7.50;1.00;;;;;;5095208;28;20838;-74
2022/01/12 13:45:36;;;;;;;15.93;4.67;;;7.40;1.00;;;;;;5087019;28;20765;-75
2022/01/12 13:48:11;;;;;;;7.23;3.90;;;7.40;1.00;;;;;;5074668;28;20830;-74
2022/01/12 13:50:38;;;;;;;16.77;4.10;;;7.40;1.00;;;;;;5081842;28;20471;-72
2022/01/12 13:53:04;;;;;;;5.27;4.50;;;7.30;1.00;;;;;;5094998;28;20404;-71
2022/01/12 13:55:31;;;;;;;7.63;3.40;;;7.30;1.00;;;;;;5087062;28;20479;-73
2022/01/12 13:58:06;;;;;;;12.73;3.33;;;7.30;1.00;;;;;;5074512;28;20447;-75
2022/01/12 14:00:34;;;;;;;5.50;3.77;;;7.20;1.00;;;;;;5083714;28;20430;-76
2022/01/12 14:03:00;;;;;;;12.47;4.30;;;7.30;1.00;;;;;;5089223;28;20904;-75
2022/01/12 14:05:39;;;;;;;10.63;4.00;;;7.20;1.00;;;;;;5094557;28;20900;-75
2022/01/12 14:08:12;;;;;;;11.47;4.23;;;7.20;1.00;;;;;;5089659;28;20431;-75
2022/01/12 14:10:42;;;;;;;10.80;3.93;;;7.20;1.00;;;;;;5093528;28;20451;-74
2022/01/12 14:13:08;;;;;;;5.70;3.73;;;7.20;1.00;;;;;;5094148;28;20400;-73
2022/01/12 14:15:34;;;;;;;2.97;2.67;;;7.30;1.00;;;;;;5093774;28;20890;-73
2022/01/12 14:18:00;;;;;;;3.93;3.43;;;7.20;1.00;;;;;;5094243;28;20427;-76
2022/01/12 14:20:36;;;;;;;14.23;4.27;;;7.30;1.00;;;;;;5086207;28;20182;-76